createdAt,value
2022-08-02T00:00:44.153Z,68.68
2022-08-02T00:03:46.961Z,68.42
2022-08-02T00:06:49.729Z,69.33
2022-08-02T00:09:52.503Z,70.23
2022-08-02T00:12:55.237Z,69.58
2022-08-02T00:15:58.377Z,69.66
2022-08-02T00:19:01.074Z,69.57
2022-08-02T00:22:03.859Z,70.12
2022-08-02T00:25:06.989Z,70.49
2022-08-02T00:28:11.175Z,70.70
2022-08-02T00:31:13.758Z,70.89
2022-08-02T00:34:30.195Z,71.13
2022-08-02T00:37:39.073Z,71.20
2022-08-02T00:40:48.454Z,72.28
2022-08-02T00:43:52.523Z,73.68
2022-08-02T00:46:55.412Z,73.49
2022-08-02T00:49:58.006Z,74.31
2022-08-02T00:53:01.032Z,74.36
2022-08-02T00:56:03.975Z,75.07
2022-08-02T00:59:06.814Z,75.20
2022-08-02T01:02:10.078Z,74.77
2022-08-02T01:05:13.719Z,75.43
2022-08-02T01:08:16.449Z,75.08
2022-08-02T01:11:19.625Z,75.33
2022-08-02T01:14:24.590Z,75.55
2022-08-02T01:17:45.323Z,75.57
2022-08-02T01:21:29.938Z,75.76
2022-08-02T01:24:46.180Z,75.88
2022-08-02T01:28:28.299Z,77.02
2022-08-02T01:31:35.928Z,77.25
2022-08-02T01:34:44.180Z,77.11
2022-08-02T01:37:55.106Z,78.20
2022-08-02T01:41:01.849Z,79.62
2022-08-02T01:44:06.320Z,80.91
2022-08-02T01:47:17.992Z,81.48
2022-08-02T01:50:27.719Z,81.23
2022-08-02T01:53:31.744Z,81.21
2022-08-02T01:56:35.957Z,81.72
2022-08-02T01:59:42.605Z,82.85
2022-08-02T02:02:48.108Z,83.20
2022-08-02T02:05:53.838Z,83.74
2022-08-02T02:08:58.653Z,83.67
2022-08-02T02:12:06.217Z,83.72
2022-08-02T02:15:17.803Z,83.17
2022-08-02T02:18:24.416Z,83.49
2022-08-02T02:21:26.992Z,84.11
2022-08-02T02:24:30.223Z,84.08
2022-08-02T02:27:34.433Z,84.37
2022-08-02T02:30:45.639Z,84.46
2022-08-02T02:34:20.929Z,85.06
2022-08-02T02:37:26.750Z,85.27
2022-08-02T02:40:32.831Z,86.17
2022-08-02T02:43:38.422Z,86.65
2022-08-02T02:46:41.757Z,87.16
2022-08-02T02:49:47.384Z,87.20
2022-08-02T02:52:50.790Z,85.31
2022-08-02T02:56:01.765Z,85.31
2022-08-02T02:59:07.361Z,86.10
2022-08-02T03:02:11.713Z,82.70
2022-08-02T03:05:15.821Z,82.32
2022-08-02T03:08:18.792Z,82.77
2022-08-02T03:11:22.563Z,82.39
2022-08-02T03:14:25.836Z,82.38
2022-08-02T03:17:39.004Z,82.95
2022-08-02T03:20:43.451Z,83.05
2022-08-02T03:23:46.175Z,83.88
2022-08-02T03:26:48.957Z,83.21
2022-08-02T03:29:51.508Z,83.60
2022-08-02T03:32:54.478Z,83.57
2022-08-02T03:36:02.371Z,83.63
2022-08-02T03:39:06.742Z,83.38
2022-08-02T03:42:10.041Z,84.51
2022-08-02T03:45:18.594Z,84.92
2022-08-02T03:48:34.339Z,84.69
2022-08-02T03:51:37.970Z,85.32
2022-08-02T03:54:45.136Z,85.26
2022-08-02T03:57:48.619Z,85.40
2022-08-02T04:00:56.254Z,86.16
2022-08-02T04:03:59.045Z,87.59
2022-08-02T04:07:01.763Z,86.77
2022-08-02T04:10:11.171Z,87.55
2022-08-02T04:13:13.771Z,87.62
2022-08-02T04:16:23.620Z,87.76
2022-08-02T04:19:39.529Z,87.36
2022-08-02T04:22:58.038Z,87.57
2022-08-02T04:26:01.840Z,86.40
2022-08-02T04:29:08.295Z,85.06
2022-08-02T04:32:11.206Z,85.02
2022-08-02T04:35:19.810Z,82.82
2022-08-02T04:38:23.071Z,83.51
2022-08-02T04:41:38.347Z,80.95
2022-08-02T04:44:46.302Z,80.13
2022-08-02T04:48:01.451Z,80.23
2022-08-02T04:51:06.267Z,80.01
2022-08-02T04:54:10.645Z,79.38
2022-08-02T04:57:31.747Z,77.37
2022-08-02T05:00:35.182Z,76.04
2022-08-02T05:03:37.861Z,75.44
2022-08-02T05:06:40.680Z,75.79
2022-08-02T05:09:43.196Z,74.91
2022-08-02T05:12:46.264Z,74.68
2022-08-02T05:15:50.548Z,73.78
2022-08-02T05:18:53.559Z,72.41
2022-08-02T05:21:56.156Z,72.10
2022-08-02T05:24:58.989Z,71.69
2022-08-02T05:28:01.508Z,72.01
2022-08-02T05:31:04.559Z,69.78
2022-08-02T05:34:16.089Z,69.36
2022-08-02T05:37:19.274Z,69.64
2022-08-02T05:40:25.920Z,68.80
2022-08-02T05:43:28.962Z,68.62
2022-08-02T05:46:31.596Z,67.70
2022-08-02T05:49:34.445Z,65.64
2022-08-02T05:52:59.094Z,65.66
2022-08-02T05:56:15.337Z,63.80
2022-08-02T05:59:31.138Z,61.68
2022-08-02T06:03:00.879Z,61.62
2022-08-02T06:06:16.241Z,61.26
2022-08-02T06:09:21.038Z,60.59
2022-08-02T06:12:33.000Z,60.15
2022-08-02T06:15:40.701Z,59.13
2022-08-02T06:18:57.199Z,58.88
2022-08-02T06:22:42.131Z,58.14
2022-08-02T06:25:50.997Z,57.87
2022-08-02T06:28:55.690Z,57.83
2022-08-02T06:31:58.909Z,58.11
2022-08-02T06:35:03.981Z,56.29
2022-08-02T06:38:09.549Z,56.52
2022-08-02T06:41:15.623Z,55.59
2022-08-02T06:47:41.020Z,53.62
2022-08-02T06:50:44.428Z,53.42
2022-08-02T06:53:47.613Z,53.24
2022-08-02T06:56:50.524Z,53.32
2022-08-02T06:59:53.464Z,52.88
2022-08-02T07:02:56.678Z,51.89
2022-08-02T07:06:00.997Z,52.74
2022-08-02T07:09:20.606Z,51.66
2022-08-02T07:12:23.714Z,51.73
2022-08-02T07:15:26.566Z,51.38
2022-08-02T07:18:29.352Z,51.30
2022-08-02T07:21:56.700Z,49.48
2022-08-02T07:24:56.841Z,49.86
2022-08-02T07:27:59.564Z,49.91
2022-08-02T07:31:04.195Z,49.84
2022-08-02T07:34:07.498Z,50.03
2022-08-02T07:37:22.336Z,49.94
2022-08-02T07:40:33.755Z,49.75
2022-08-02T07:43:37.071Z,49.29
2022-08-02T07:46:39.846Z,49.36
2022-08-02T07:49:42.626Z,48.21
2022-08-02T07:52:46.320Z,47.76
2022-08-02T07:55:48.818Z,46.95
2022-08-02T07:58:51.993Z,47.32
2022-08-02T08:01:54.655Z,46.93
2022-08-02T08:04:58.272Z,46.65
2022-08-02T08:08:00.757Z,46.28
2022-08-02T08:11:03.712Z,46.17
2022-08-02T08:14:25.341Z,46.46
2022-08-02T08:17:28.162Z,45.12
2022-08-02T08:20:30.696Z,45.37
2022-08-02T08:23:33.513Z,44.89
2022-08-02T08:26:36.066Z,43.20
2022-08-02T08:29:38.851Z,41.74
2022-08-02T08:32:41.357Z,41.74
2022-08-02T08:35:44.111Z,40.63
2022-08-02T08:38:46.625Z,39.62
2022-08-02T08:41:49.908Z,40.09
2022-08-02T08:44:52.562Z,39.02
2022-08-02T08:48:12.745Z,38.45
2022-08-02T08:51:19.367Z,39.04
2022-08-02T08:54:27.724Z,38.81
2022-08-02T08:57:31.734Z,37.93
2022-08-02T09:00:36.403Z,38.30
2022-08-02T09:03:39.211Z,38.34
2022-08-02T09:06:42.545Z,37.62
2022-08-02T09:09:45.061Z,37.59
2022-08-02T09:13:38.050Z,37.09
2022-08-02T09:16:36.708Z,36.66
2022-08-02T09:19:45.746Z,37.19
2022-08-02T09:23:07.249Z,36.83
2022-08-02T09:26:13.971Z,36.41
2022-08-02T09:29:18.368Z,36.57
2022-08-02T09:32:24.431Z,37.25
2022-08-02T09:36:06.853Z,37.72
2022-08-02T09:39:05.341Z,37.20
2022-08-02T09:42:10.889Z,36.50
2022-08-02T09:45:13.959Z,35.85
2022-08-02T09:48:16.574Z,35.77
2022-08-02T09:51:22.086Z,35.42
2022-08-02T09:54:28.732Z,35.17
2022-08-02T09:57:33.672Z,35.26
2022-08-02T10:00:51.777Z,34.57
2022-08-02T10:03:57.774Z,34.82
2022-08-02T10:07:17.179Z,34.49
2022-08-02T10:10:35.154Z,34.21
2022-08-02T10:13:37.725Z,34.42
2022-08-02T10:16:42.488Z,33.93
2022-08-02T10:20:02.675Z,33.24
2022-08-02T10:23:10.249Z,33.41
2022-08-02T10:26:15.942Z,32.88
2022-08-02T10:29:24.279Z,32.67
2022-08-02T10:32:39.537Z,32.16
2022-08-02T10:36:06.703Z,32.91
2022-08-02T10:39:10.455Z,31.62
2022-08-02T10:42:33.928Z,31.84
2022-08-02T10:45:36.522Z,31.51
2022-08-02T10:49:38.611Z,31.15
2022-08-02T10:52:40.850Z,30.98
2022-08-02T10:55:47.095Z,31.08
2022-08-02T10:59:27.519Z,31.81
2022-08-02T11:02:53.292Z,30.79
2022-08-02T11:06:07.575Z,30.78
2022-08-02T11:09:32.950Z,30.46
2022-08-02T11:13:04.972Z,30.78
2022-08-02T11:16:11.621Z,30.17
2022-08-02T11:19:14.868Z,30.03
2022-08-02T11:22:25.199Z,30.03
2022-08-02T11:25:43.008Z,30.20
2022-08-02T11:28:51.706Z,30.16
2022-08-02T11:31:54.213Z,30.47
2022-08-02T11:34:59.196Z,29.33
2022-08-02T11:38:16.212Z,29.66
2022-08-02T11:41:47.450Z,29.92
2022-08-02T11:44:46.768Z,31.15
2022-08-02T11:47:52.013Z,31.10
2022-08-02T11:51:23.116Z,31.12
2022-08-02T11:54:28.555Z,30.43
2022-08-02T11:58:04.484Z,30.74
2022-08-02T12:01:16.315Z,29.91
2022-08-02T12:04:22.842Z,30.21
2022-08-02T12:07:34.357Z,30.69
2022-08-02T12:10:50.238Z,31.16
2022-08-02T12:13:57.219Z,30.02
2022-08-02T12:17:18.734Z,30.22
2022-08-02T12:20:37.448Z,30.71
2022-08-02T12:23:57.155Z,31.54
2022-08-02T12:27:03.901Z,31.99
2022-08-02T12:30:13.300Z,31.35
2022-08-02T12:33:17.673Z,31.10
2022-08-02T12:36:21.758Z,31.55
2022-08-02T12:39:33.806Z,30.70
2022-08-02T12:42:46.762Z,30.82
2022-08-02T12:45:55.268Z,29.86
2022-08-02T12:49:17.447Z,30.75
2022-08-02T12:52:22.299Z,31.92
2022-08-02T12:55:59.319Z,32.54
2022-08-02T12:58:50.750Z,32.86
2022-08-02T13:01:53.628Z,31.53
2022-08-02T13:04:59.680Z,31.02
2022-08-02T13:08:04.483Z,29.83
2022-08-02T13:11:07.358Z,30.71
2022-08-02T13:14:10.214Z,31.93
2022-08-02T13:17:12.931Z,32.42
2022-08-02T13:20:17.554Z,33.75
2022-08-02T13:23:21.694Z,33.30
2022-08-02T13:26:29.600Z,33.69
2022-08-02T13:29:33.900Z,32.88
2022-08-02T13:32:36.727Z,32.69
2022-08-02T13:35:39.210Z,31.33
2022-08-02T13:38:42.171Z,31.55
2022-08-02T13:41:44.822Z,30.65
2022-08-02T13:44:47.652Z,30.22
2022-08-02T13:47:57.559Z,29.48
2022-08-02T13:51:11.959Z,30.02
2022-08-02T13:54:17.869Z,29.53
2022-08-02T13:57:20.684Z,28.80
2022-08-02T14:00:34.212Z,28.84
2022-08-02T14:04:07.524Z,28.26
2022-08-02T14:07:04.831Z,27.95
2022-08-02T14:10:08.147Z,28.33
2022-08-02T14:13:11.109Z,28.09
2022-08-02T14:16:13.999Z,28.50
2022-08-02T14:19:17.471Z,28.26
2022-08-02T14:22:20.441Z,28.17
2022-08-02T14:25:23.000Z,27.66
2022-08-02T14:28:26.162Z,28.02
2022-08-02T14:31:29.621Z,27.28
2022-08-02T14:34:32.422Z,26.49
2022-08-02T14:37:35.365Z,26.61
2022-08-02T14:40:38.373Z,26.43
2022-08-02T14:43:59.689Z,26.53
2022-08-02T14:47:02.548Z,26.55
2022-08-02T14:50:05.549Z,27.05
2022-08-02T14:53:12.069Z,26.86
2022-08-02T14:56:14.927Z,26.32
2022-08-02T14:59:17.823Z,26.04
2022-08-02T15:02:20.324Z,26.86
2022-08-02T15:05:23.188Z,25.48
2022-08-02T15:08:25.917Z,25.20
2022-08-02T15:11:28.846Z,24.71
2022-08-02T15:14:31.504Z,23.40
2022-08-02T15:17:34.337Z,21.28
2022-08-02T15:20:36.983Z,19.39
2022-08-02T15:23:42.461Z,17.97
2022-08-02T15:26:44.978Z,16.46
2022-08-02T15:29:47.829Z,14.94
2022-08-02T15:32:53.186Z,14.23
2022-08-02T15:35:57.260Z,14.23
2022-08-02T15:38:59.783Z,14.96
2022-08-02T15:42:03.210Z,14.32
2022-08-02T15:45:06.306Z,13.92
2022-08-02T15:48:09.161Z,13.76
2022-08-02T15:51:11.739Z,13.18
2022-08-02T15:54:14.628Z,12.92
2022-08-02T15:57:17.094Z,12.18
2022-08-02T16:00:20.593Z,11.50
2022-08-02T16:03:23.366Z,11.38
2022-08-02T16:06:26.336Z,11.08
2022-08-02T16:09:29.533Z,11.24
2022-08-02T16:12:32.977Z,11.64
2022-08-02T16:15:35.908Z,12.28
2022-08-02T16:18:38.504Z,12.16
2022-08-02T16:21:41.289Z,12.57
2022-08-02T16:24:43.795Z,14.18
2022-08-02T16:27:59.279Z,16.67
2022-08-02T16:31:11.186Z,18.94
2022-08-02T16:34:15.296Z,21.27
2022-08-02T16:37:17.792Z,22.33
2022-08-02T16:40:24.919Z,23.17
2022-08-02T16:43:27.716Z,24.24
2022-08-02T16:46:32.476Z,25.37
2022-08-02T16:50:07.035Z,25.86
2022-08-02T16:52:58.628Z,26.09
2022-08-02T16:56:01.534Z,27.56
2022-08-02T16:59:04.321Z,27.54
2022-08-02T17:02:15.248Z,27.18
2022-08-02T17:05:21.564Z,27.86
2022-08-02T17:08:24.378Z,28.82
2022-08-02T17:11:39.946Z,29.13
2022-08-02T17:18:13.954Z,29.54
2022-08-02T17:21:18.266Z,30.74
2022-08-02T17:24:21.237Z,31.05
2022-08-02T17:27:23.710Z,31.07
2022-08-02T17:30:27.329Z,31.34
2022-08-02T17:33:29.924Z,31.54
2022-08-02T17:36:34.412Z,31.95
2022-08-02T17:39:44.248Z,32.47
2022-08-02T17:42:54.963Z,32.98
2022-08-02T17:45:59.863Z,33.28
2022-08-02T17:49:17.606Z,33.86
2022-08-02T17:52:51.867Z,34.46
2022-08-02T17:55:46.277Z,34.43
2022-08-02T17:58:54.097Z,35.62
2022-08-02T18:02:03.542Z,34.77
2022-08-02T18:05:11.581Z,35.67
2022-08-02T18:08:16.143Z,36.20
2022-08-02T18:11:52.948Z,36.98
2022-08-02T18:14:49.286Z,37.22
2022-08-02T18:17:52.166Z,35.75
2022-08-02T18:20:58.686Z,35.26
2022-08-02T18:24:19.406Z,35.29
2022-08-02T18:27:26.641Z,34.92
2022-08-02T18:30:31.452Z,34.86
2022-08-02T18:33:57.290Z,35.00
2022-08-02T18:36:57.387Z,33.92
2022-08-02T18:40:00.149Z,34.14
2022-08-02T18:43:03.296Z,34.56
2022-08-02T18:46:16.051Z,35.09
2022-08-02T18:49:19.800Z,35.04
2022-08-02T18:52:31.034Z,35.36
2022-08-02T18:55:59.699Z,35.52
2022-08-02T18:58:58.466Z,35.65
2022-08-02T19:02:01.493Z,36.13
2022-08-02T19:05:07.054Z,36.50
2022-08-02T19:08:10.060Z,36.36
2022-08-02T19:11:13.593Z,36.89
2022-08-02T19:14:24.076Z,36.60
2022-08-02T19:17:55.104Z,37.25
2022-08-02T19:20:53.469Z,37.90
2022-08-02T19:23:56.179Z,37.81
2022-08-02T19:26:59.052Z,37.79
2022-08-02T19:30:16.368Z,37.91
2022-08-02T19:33:25.063Z,38.39
2022-08-02T19:36:42.784Z,38.65
2022-08-02T19:39:45.764Z,38.63
2022-08-02T19:44:20.926Z,39.18
2022-08-02T19:46:15.560Z,39.00
2022-08-02T19:49:20.250Z,39.33
2022-08-02T19:52:42.221Z,39.31
2022-08-02T19:56:01.097Z,39.66
2022-08-02T19:59:13.283Z,40.47
2022-08-02T20:02:18.351Z,40.65
2022-08-02T20:05:26.511Z,41.04
2022-08-02T20:08:35.331Z,41.48
2022-08-02T20:11:39.122Z,42.44
2022-08-02T20:14:50.819Z,41.86
2022-08-02T20:17:54.282Z,42.11
2022-08-02T20:20:56.899Z,43.21
2022-08-02T20:23:59.895Z,43.19
2022-08-02T20:27:03.251Z,43.07
2022-08-02T20:30:06.787Z,43.40
2022-08-02T20:33:21.660Z,43.95
2022-08-02T20:36:27.026Z,43.91
2022-08-02T20:39:42.987Z,43.00
2022-08-02T20:42:47.803Z,42.84
2022-08-02T20:45:50.866Z,43.53
2022-08-02T20:48:53.700Z,43.68
2022-08-02T20:52:01.710Z,44.07
2022-08-02T20:55:05.052Z,44.33
2022-08-02T20:58:11.827Z,45.13
2022-08-02T21:01:14.929Z,45.38
2022-08-02T21:04:19.271Z,47.18
2022-08-02T21:07:22.319Z,46.90
2022-08-02T21:10:25.307Z,47.55
2022-08-02T21:13:28.040Z,47.84
2022-08-02T21:16:30.568Z,49.51
2022-08-02T21:19:33.688Z,50.62
2022-08-02T21:22:36.213Z,50.36
2022-08-02T21:25:42.696Z,50.67
2022-08-02T21:29:03.717Z,49.94
2022-08-02T21:32:07.148Z,48.95
2022-08-02T21:35:10.603Z,48.27
2022-08-02T21:38:35.234Z,48.83
2022-08-02T21:41:39.441Z,49.22
2022-08-02T21:44:50.629Z,49.68
2022-08-02T21:47:53.342Z,50.44
2022-08-02T21:50:56.147Z,51.13
2022-08-02T21:54:17.080Z,52.24
2022-08-02T21:57:22.595Z,52.28
2022-08-02T22:00:28.901Z,52.19
2022-08-02T22:03:32.352Z,52.03
2022-08-02T22:06:35.537Z,51.96
2022-08-02T22:09:43.419Z,53.11
2022-08-02T22:12:47.841Z,53.49
2022-08-02T22:15:50.708Z,52.95
2022-08-02T22:18:53.679Z,54.66
2022-08-02T22:21:59.008Z,54.69
2022-08-02T22:25:01.808Z,54.36
2022-08-02T22:28:36.733Z,54.89
2022-08-02T22:31:40.849Z,55.70
2022-08-02T22:34:51.648Z,56.74
2022-08-02T22:38:14.755Z,56.51
2022-08-02T22:41:17.858Z,57.85
2022-08-02T22:44:20.597Z,58.72
2022-08-02T22:47:23.336Z,59.51
2022-08-02T22:50:31.838Z,58.54
2022-08-02T22:53:35.443Z,58.42
2022-08-02T22:56:38.556Z,58.10
2022-08-02T22:58:37.496Z,29.36
2022-08-02T22:59:47.447Z,57.77
2022-08-02T23:02:51.184Z,58.08
2022-08-02T23:05:54.234Z,57.90
2022-08-02T23:08:56.752Z,58.51
2022-08-02T23:11:59.609Z,59.24
2022-08-02T23:15:02.190Z,59.58
2022-08-02T23:18:24.754Z,60.40
2022-08-02T23:21:46.161Z,60.49
2022-08-02T23:24:55.588Z,60.83
2022-08-02T23:27:58.028Z,62.83
2022-08-02T23:31:01.586Z,62.46
2022-08-02T23:34:04.952Z,63.06
2022-08-02T23:37:07.951Z,63.41
2022-08-02T23:40:10.864Z,63.14
2022-08-02T23:43:15.380Z,62.56
2022-08-02T23:46:17.950Z,63.08
2022-08-02T23:49:22.253Z,63.96
2022-08-02T23:52:24.969Z,64.40
2022-08-02T23:55:27.727Z,64.25
2022-08-02T23:58:32.855Z,64.18
